Time;durP1;ratioP1;P1;durP2;ratioP2;P2;SDS_P1;SDS_P2;PMS_P1;PMS_P2;Temp;Humidity;BMP_temperature;BMP_pressure;BME280_temperature;BME280_humidity;BME280_pressure;Samples;Min_cycle;Max_cycle;Signal;HPM_P1;HPM_P2
2022/10/28 00:01:33;;;;;;;19.40;7.70;;;11.00;99.90;;;;;;5046491;28;20382;-76
2022/10/28 00:04:00;;;;;;;15.65;6.97;;;11.00;99.90;;;;;;5046197;28;20401;-78
2022/10/28 00:06:31;;;;;;;20.73;7.78;;;11.00;99.90;;;;;;5047614;28;20039;-77
2022/10/28 00:08:57;;;;;;;20.25;6.78;;;11.00;99.90;;;;;;5030095;28;20051;-76
2022/10/28 00:11:25;;;;;;;14.35;6.93;;;11.00;99.90;;;;;;5047424;28;20037;-77
2022/10/28 00:13:56;;;;;;;19.83;6.95;;;11.00;99.90;;;;;;5046684;28;20041;-78
2022/10/28 00:16:24;;;;;;;22.92;7.72;;;11.00;99.90;;;;;;5047036;28;20486;-77
2022/10/28 00:18:52;;;;;;;16.63;8.07;;;10.90;99.90;;;;;;5046216;28;20171;-78
2022/10/28 00:21:24;;;;;;;15.77;7.75;;;11.00;99.90;;;;;;5046866;28;20044;-77
2022/10/28 00:23:49;;;;;;;18.50;8.48;;;11.00;99.90;;;;;;5046784;28;20094;-76
2022/10/28 00:26:21;;;;;;;14.73;7.43;;;11.00;99.90;;;;;;5046857;28;20561;-77
2022/10/28 00:28:53;;;;;;;17.83;7.43;;;11.00;99.90;;;;;;5047135;28;20433;-74
2022/10/28 00:31:20;;;;;;;18.48;7.63;;;11.00;99.90;;;;;;5046936;28;20035;-76
2022/10/28 00:33:46;;;;;;;21.63;8.18;;;11.00;99.90;;;;;;5047060;28;20163;-71
2022/10/28 00:36:15;;;;;;;17.25;7.97;;;11.00;99.90;;;;;;5046288;28;20137;-77
2022/10/28 00:38:42;;;;;;;18.33;7.70;;;11.00;99.90;;;;;;5046711;28;20037;-78
2022/10/28 00:41:09;;;;;;;15.10;7.03;;;10.90;99.90;;;;;;5046939;28;20108;-75
2022/10/28 00:43:45;;;;;;;17.27;7.70;;;10.80;99.90;;;;;;5048010;28;20175;-77
2022/10/28 00:46:29;;;;;;;16.35;7.60;;;10.80;99.90;;;;;;5045179;28;20060;-75
2022/10/28 00:49:02;;;;;;;17.02;7.25;;;10.80;99.90;;;;;;5046114;28;20121;-78
2022/10/28 00:51:30;;;;;;;18.92;8.20;;;10.70;99.90;;;;;;5046571;28;20056;-77
2022/10/28 00:53:56;;;;;;;24.73;7.95;;;10.70;99.90;;;;;;5046926;28;20029;-76
2022/10/28 00:56:28;;;;;;;19.58;7.85;;;10.60;99.90;;;;;;5047030;28;20104;-76
2022/10/28 00:58:58;;;;;;;19.30;7.03;;;10.60;99.90;;;;;;5045486;28;20029;-72
2022/10/28 01:01:23;;;;;;;22.98;7.68;;;10.60;99.90;;;;;;5046838;28;20489;-78
2022/10/28 01:03:50;;;;;;;22.02;7.47;;;10.60;99.90;;;;;;5047736;28;20039;-73
2022/10/28 01:06:16;;;;;;;16.48;6.80;;;10.60;99.90;;;;;;5044770;28;20048;-76
2022/10/28 01:08:41;;;;;;;17.40;6.40;;;10.60;99.90;;;;;;5031767;28;20620;-77
2022/10/28 01:11:13;;;;;;;15.60;6.35;;;10.60;99.90;;;;;;5036694;28;20071;-77
2022/10/28 01:14:23;;;;;;;14.05;7.40;;;10.60;99.90;;;;;;5048793;28;20140;-77
2022/10/28 01:17:06;;;;;;;16.65;7.63;;;10.70;99.90;;;;;;5031194;28;20128;-73
2022/10/28 01:19:44;;;;;;;15.38;7.60;;;10.70;99.90;;;;;;5050503;28;20043;-76
2022/10/28 01:22:24;;;;;;;13.02;6.63;;;10.80;99.90;;;;;;5050279;28;20191;-76
2022/10/28 01:25:06;;;;;;;17.10;7.05;;;10.80;99.90;;;;;;5049917;28;20040;-74
2022/10/28 01:28:26;;;;;;;13.77;7.28;;;10.80;99.90;;;;;;5050208;28;20036;-76
2022/10/28 01:31:19;;;;;;;17.13;6.78;;;10.70;99.90;;;;;;4972281;28;20038;-74
2022/10/28 01:34:03;;;;;;;18.13;7.28;;;10.70;99.90;;;;;;4988067;28;20127;-78
2022/10/28 01:36:39;;;;;;;19.80;6.97;;;10.70;99.90;;;;;;4989378;28;20274;-78
2022/10/28 01:39:12;;;;;;;23.33;7.43;;;10.60;99.90;;;;;;4986827;28;20026;-77
2022/10/28 01:41:55;;;;;;;22.30;7.32;;;10.60;99.90;;;;;;4987964;28;20048;-77
2022/10/28 01:44:26;;;;;;;12.10;6.88;;;10.40;99.90;;;;;;4988619;28;20046;-77
2022/10/28 01:47:09;;;;;;;13.77;7.50;;;10.40;99.90;;;;;;4988019;28;20065;-73
2022/10/28 01:49:51;;;;;;;22.25;7.13;;;10.40;99.90;;;;;;4987608;28;20084;-76
2022/10/28 01:52:21;;;;;;;20.42;7.05;;;10.40;99.90;;;;;;4987397;28;20046;-74
2022/10/28 01:54:56;;;;;;;17.53;7.20;;;10.30;99.90;;;;;;4987707;28;20093;-78
2022/10/28 01:57:24;;;;;;;14.85;6.70;;;10.20;99.90;;;;;;4987707;28;20035;-76
2022/10/28 01:59:51;;;;;;;19.27;7.35;;;10.20;99.90;;;;;;4987785;28;20537;-73
2022/10/28 02:02:17;;;;;;;19.27;6.65;;;10.10;99.90;;;;;;5034998;28;20044;-76
2022/10/28 02:04:43;;;;;;;18.27;7.60;;;10.20;99.90;;;;;;5050271;28;20041;-76
2022/10/28 02:07:09;;;;;;;23.92;6.80;;;10.20;99.90;;;;;;5048380;28;20041;-76
2022/10/28 02:09:55;;;;;;;12.80;6.57;;;10.20;99.90;;;;;;5042540;28;20037;-79
2022/10/28 02:12:33;;;;;;;13.00;6.35;;;10.20;99.90;;;;;;5050185;28;20040;-78
2022/10/28 02:15:24;;;;;;;16.85;7.28;;;10.20;99.90;;;;;;5048462;28;20041;-78
2022/10/28 02:17:56;;;;;;;17.25;7.20;;;10.20;99.90;;;;;;5031551;28;20804;-74
2022/10/28 02:20:24;;;;;;;12.55;6.80;;;10.20;99.90;;;;;;5050252;28;20037;-76
2022/10/28 02:23:03;;;;;;;13.10;6.47;;;10.20;99.90;;;;;;5048308;28;20036;-78
2022/10/28 02:25:55;;;;;;;11.98;6.22;;;10.20;99.90;;;;;;5044916;28;20662;-79
2022/10/28 02:28:30;;;;;;;12.95;6.47;;;10.20;99.90;;;;;;5045271;28;20032;-79
2022/10/28 02:31:17;;;;;;;19.40;6.45;;;10.20;99.90;;;;;;5046416;28;20029;-74
2022/10/28 02:33:45;;;;;;;18.23;7.10;;;10.10;99.90;;;;;;5049451;28;20699;-78
2022/10/28 02:36:15;;;;;;;19.48;6.38;;;10.00;99.90;;;;;;5050124;28;20029;-76
2022/10/28 02:38:51;;;;;;;11.65;6.38;;;10.00;99.90;;;;;;5049987;28;20041;-76
2022/10/28 02:41:23;;;;;;;14.00;6.32;;;10.00;99.90;;;;;;5048948;28;20033;-79
2022/10/28 02:43:57;;;;;;;19.02;6.10;;;10.00;99.90;;;;;;5049004;28;20040;-76
2022/10/28 02:46:25;;;;;;;14.82;6.55;;;9.90;99.90;;;;;;5049935;28;20574;-76
2022/10/28 02:48:59;;;;;;;14.20;6.10;;;9.90;99.90;;;;;;5048266;28;20044;-78
2022/10/28 02:51:33;;;;;;;15.43;6.65;;;9.90;99.90;;;;;;5047637;28;20065;-78
2022/10/28 02:54:16;;;;;;;15.13;6.80;;;9.90;99.90;;;;;;5048577;28;20024;-77
2022/10/28 02:56:48;;;;;;;11.38;6.85;;;10.00;99.90;;;;;;5044660;28;20036;-76
2022/10/28 02:59:14;;;;;;;15.82;6.05;;;10.00;99.90;;;;;;5034796;28;20029;-77
2022/10/28 03:01:40;;;;;;;15.35;6.32;;;10.00;99.90;;;;;;5049591;28;20888;-78
2022/10/28 03:04:05;;;;;;;17.17;6.95;;;10.00;99.90;;;;;;5046096;28;20060;-76
2022/10/28 03:06:31;;;;;;;11.35;5.78;;;10.00;99.90;;;;;;5042826;28;20039;-78
2022/10/28 03:08:57;;;;;;;14.52;6.65;;;10.00;99.90;;;;;;5045124;28;20029;-74
2022/10/28 03:11:23;;;;;;;16.30;5.80;;;9.90;99.90;;;;;;5042072;28;20032;-76
2022/10/28 03:13:48;;;;;;;12.85;6.43;;;9.90;99.90;;;;;;5046302;28;20039;-75
2022/10/28 03:16:14;;;;;;;14.32;6.50;;;9.90;99.90;;;;;;5038636;28;20141;-78
2022/10/28 03:18:39;;;;;;;14.48;6.53;;;10.00;99.90;;;;;;5049309;28;20091;-78
2022/10/28 03:21:05;;;;;;;15.60;6.75;;;10.00;99.90;;;;;;5040630;28;20044;-77
2022/10/28 03:23:31;;;;;;;16.67;6.13;;;10.00;99.90;;;;;;5046821;28;20082;-75
2022/10/28 03:25:57;;;;;;;16.00;6.50;;;10.00;99.90;;;;;;5045835;28;20025;-71
2022/10/28 03:28:22;;;;;;;12.18;6.68;;;10.00;99.90;;;;;;5042424;28;20025;-76
2022/10/28 03:30:48;;;;;;;15.48;5.95;;;10.00;99.90;;;;;;5047991;28;20052;-76
2022/10/28 03:33:14;;;;;;;16.70;6.30;;;10.10;99.90;;;;;;5040407;28;20032;-76
2022/10/28 03:35:40;;;;;;;13.48;6.80;;;10.00;99.90;;;;;;5058132;28;20636;-76
2022/10/28 03:38:06;;;;;;;12.18;6.13;;;10.00;99.90;;;;;;5044585;28;20094;-75
2022/10/28 03:40:33;;;;;;;16.10;6.60;;;10.00;99.90;;;;;;5046134;28;20033;-75
2022/10/28 03:42:58;;;;;;;12.20;6.43;;;10.10;99.90;;;;;;5045793;28;20096;-71
2022/10/28 03:45:24;;;;;;;14.55;6.40;;;10.20;99.90;;;;;;5046025;28;20052;-75
2022/10/28 03:47:49;;;;;;;18.35;6.45;;;10.20;99.90;;;;;;5052097;28;20390;-74
2022/10/28 03:50:15;;;;;;;13.45;5.63;;;10.10;99.90;;;;;;5043599;28;20043;-75
2022/10/28 03:52:44;;;;;;;16.25;5.90;;;10.10;99.90;;;;;;5048670;28;20037;-76
2022/10/28 03:55:24;;;;;;;19.52;5.68;;;10.10;99.90;;;;;;5048458;28;20071;-75
2022/10/28 03:57:51;;;;;;;13.60;6.30;;;10.10;99.90;;;;;;5045507;28;20025;-74
2022/10/28 04:00:17;;;;;;;13.68;6.38;;;10.10;99.90;;;;;;5039676;28;20108;-79
2022/10/28 04:02:49;;;;;;;12.73;5.90;;;10.10;99.90;;;;;;5050298;28;20033;-78
2022/10/28 04:05:15;;;;;;;15.52;6.20;;;10.00;99.90;;;;;;5044909;28;20125;-79
2022/10/28 04:07:41;;;;;;;15.63;6.57;;;10.00;99.90;;;;;;5048124;28;20109;-78
2022/10/28 04:10:07;;;;;;;13.52;6.00;;;10.00;99.90;;;;;;5044337;28;20151;-75
2022/10/28 04:12:35;;;;;;;15.93;6.63;;;10.00;99.90;;;;;;5046594;28;20539;-80
2022/10/28 04:15:01;;;;;;;19.05;6.80;;;10.00;99.90;;;;;;5047744;28;20112;-74
2022/10/28 04:17:27;;;;;;;12.90;6.78;;;10.00;99.90;;;;;;5047607;28;20108;-81
2022/10/28 04:19:53;;;;;;;12.40;6.43;;;10.00;99.90;;;;;;5032585;28;20037;-81
2022/10/28 04:22:18;;;;;;;12.27;6.15;;;10.00;99.90;;;;;;5046700;28;20025;-80
2022/10/28 04:24:44;;;;;;;15.70;7.70;;;10.00;99.90;;;;;;5047757;28;20037;-79
2022/10/28 04:27:10;;;;;;;14.18;6.40;;;10.00;99.90;;;;;;5043526;28;20029;-77
2022/10/28 04:29:35;;;;;;;13.68;7.13;;;10.00;99.90;;;;;;5047238;28;20120;-83
2022/10/28 04:32:01;;;;;;;15.88;6.22;;;10.00;99.90;;;;;;5047462;28;20759;-73
2022/10/28 04:34:27;;;;;;;13.68;5.95;;;9.90;99.90;;;;;;5046434;28;20389;-79
2022/10/28 04:36:52;;;;;;;14.45;6.03;;;10.00;99.90;;;;;;5047653;28;20025;-82
2022/10/28 04:39:18;;;;;;;18.92;6.70;;;10.00;99.90;;;;;;5044308;28;20037;-80
2022/10/28 04:41:44;;;;;;;14.05;6.43;;;10.00;99.90;;;;;;5047320;28;20714;-78
2022/10/28 04:44:09;;;;;;;12.18;5.93;;;10.00;99.90;;;;;;5046153;28;20461;-77
2022/10/28 04:46:35;;;;;;;11.73;6.40;;;10.00;99.90;;;;;;5047484;28;20077;-80
2022/10/28 04:49:01;;;;;;;16.08;7.03;;;10.00;99.90;;;;;;5048747;28;20033;-72
2022/10/28 04:51:26;;;;;;;17.75;6.20;;;10.00;99.90;;;;;;5050115;28;20037;-81
2022/10/28 04:53:52;;;;;;;14.52;6.60;;;10.00;99.90;;;;;;5051051;28;20496;-83
2022/10/28 04:56:17;;;;;;;15.63;6.65;;;10.10;99.90;;;;;;5048524;28;20044;-78
2022/10/28 04:58:43;;;;;;;10.57;6.18;;;10.20;99.90;;;;;;5049721;28;20116;-75
2022/10/28 05:01:09;;;;;;;18.80;6.90;;;10.20;99.90;;;;;;5050268;28;20039;-79
2022/10/28 05:03:35;;;;;;;13.82;6.88;;;10.20;99.90;;;;;;5051051;28;20108;-80
2022/10/28 05:06:01;;;;;;;11.60;6.25;;;10.20;99.90;;;;;;5051118;28;20417;-75
2022/10/28 05:08:27;;;;;;;16.25;7.10;;;10.30;99.90;;;;;;5050036;28;20035;-81
2022/10/28 05:10:52;;;;;;;13.05;6.57;;;10.30;99.90;;;;;;5050397;28;20025;-81
2022/10/28 05:13:19;;;;;;;15.20;5.68;;;10.40;99.90;;;;;;5049500;28;20523;-81
2022/10/28 05:15:47;;;;;;;15.15;5.85;;;10.20;99.90;;;;;;5050942;28;20072;-81
2022/10/28 05:18:12;;;;;;;13.65;5.82;;;10.00;99.90;;;;;;5047669;28;20703;-80
2022/10/28 05:20:38;;;;;;;16.30;6.53;;;10.00;99.90;;;;;;5050643;28;20091;-76
2022/10/28 05:23:04;;;;;;;15.65;6.90;;;10.00;99.90;;;;;;5050979;28;20037;-73
2022/10/28 05:25:29;;;;;;;18.23;6.38;;;10.10;99.90;;;;;;5050746;28;20086;-79
2022/10/28 05:27:59;;;;;;;16.38;6.45;;;10.20;99.90;;;;;;5049680;28;20640;-79
2022/10/28 05:30:25;;;;;;;11.45;6.18;;;10.30;99.90;;;;;;5049284;28;20082;-78
2022/10/28 05:32:50;;;;;;;16.45;7.07;;;10.40;99.90;;;;;;5049475;28;20426;-75
2022/10/28 05:35:16;;;;;;;12.70;5.97;;;10.50;99.90;;;;;;5049543;28;20064;-78
2022/10/28 05:37:43;;;;;;;13.45;5.97;;;10.60;99.90;;;;;;5050830;28;20108;-79
2022/10/28 05:40:09;;;;;;;14.77;5.28;;;10.60;99.90;;;;;;5050030;28;20755;-80
2022/10/28 05:42:43;;;;;;;12.70;4.80;;;10.30;99.90;;;;;;5048731;28;20036;-76
2022/10/28 05:45:10;;;;;;;12.15;5.32;;;10.10;99.90;;;;;;5049408;28;20132;-81
2022/10/28 05:47:41;;;;;;;10.75;5.20;;;10.00;99.90;;;;;;5049868;28;20033;-78
2022/10/28 05:50:06;;;;;;;14.10;5.88;;;10.00;99.90;;;;;;5049678;28;20032;-75
2022/10/28 05:52:32;;;;;;;21.60;6.03;;;10.10;99.90;;;;;;5038661;28;20041;-83
2022/10/28 05:54:57;;;;;;;13.52;5.93;;;10.20;99.90;;;;;;5050517;28;20040;-79
2022/10/28 05:57:23;;;;;;;13.27;6.10;;;10.20;99.90;;;;;;5049048;28;20697;-79
2022/10/28 05:59:49;;;;;;;13.52;5.97;;;10.30;99.90;;;;;;5048517;28;20116;-79
2022/10/28 06:02:15;;;;;;;19.00;6.38;;;10.40;99.90;;;;;;5046879;28;20390;-81
2022/10/28 06:04:41;;;;;;;14.05;5.90;;;10.50;99.90;;;;;;5050840;28;20029;-80
2022/10/28 06:07:07;;;;;;;13.55;6.30;;;10.60;99.90;;;;;;5049821;28;20126;-74
2022/10/28 06:09:32;;;;;;;14.93;6.47;;;10.70;99.90;;;;;;5048667;28;20064;-78
2022/10/28 06:11:58;;;;;;;16.08;6.45;;;10.80;99.90;;;;;;5047257;28;20033;-77
2022/10/28 06:14:24;;;;;;;13.35;6.30;;;10.80;99.90;;;;;;5048871;28;20112;-81
2022/10/28 06:16:50;;;;;;;15.27;5.68;;;10.90;99.90;;;;;;5048632;28;20060;-78
2022/10/28 06:19:16;;;;;;;15.65;6.10;;;10.90;99.90;;;;;;5044126;28;20187;-80
2022/10/28 06:21:42;;;;;;;19.13;8.02;;;10.90;99.90;;;;;;5048939;28;20108;-81
2022/10/28 06:24:08;;;;;;;24.20;10.43;;;10.90;99.90;;;;;;5047915;28;20052;-75
2022/10/28 06:26:34;;;;;;;18.20;9.10;;;10.80;99.90;;;;;;5049365;28;20397;-75
2022/10/28 06:28:59;;;;;;;22.30;7.45;;;10.70;99.90;;;;;;5047488;28;20033;-76
2022/10/28 06:31:25;;;;;;;23.52;7.55;;;10.70;99.90;;;;;;5046698;28;20105;-77
2022/10/28 06:33:50;;;;;;;24.25;7.82;;;10.80;99.90;;;;;;5048314;28;20029;-79
2022/10/28 06:36:16;;;;;;;20.08;7.28;;;11.00;99.90;;;;;;5047691;28;20039;-79
2022/10/28 06:38:42;;;;;;;15.57;6.32;;;11.30;99.90;;;;;;5049118;28;20068;-80
2022/10/28 06:41:07;;;;;;;20.85;7.18;;;11.60;99.90;;;;;;5049264;28;20389;-74
2022/10/28 06:43:33;;;;;;;18.45;6.93;;;11.60;99.90;;;;;;5047847;28;20500;-78
2022/10/28 06:46:04;;;;;;;20.20;6.78;;;11.70;99.90;;;;;;5049041;28;20474;-78
2022/10/28 06:48:29;;;;;;;;;;;11.70;99.90;;;;;;5048209;28;20111;-79
2022/10/28 06:50:56;;;;;;;18.95;7.05;;;11.60;99.90;;;;;;5049409;28;20113;-75
2022/10/28 06:53:23;;;;;;;14.18;6.75;;;11.40;99.90;;;;;;5048274;28;20040;-80
2022/10/28 06:55:56;;;;;;;13.65;6.88;;;11.20;99.90;;;;;;5048170;28;20446;-78
2022/10/28 06:58:23;;;;;;;13.88;7.10;;;11.20;99.90;;;;;;5046292;28;20053;-78
2022/10/28 07:00:49;;;;;;;14.57;6.68;;;11.10;99.90;;;;;;5049698;28;20025;-78
2022/10/28 07:03:15;;;;;;;24.73;7.30;;;11.10;99.90;;;;;;5046836;28;20355;-80
2022/10/28 07:05:41;;;;;;;15.70;7.38;;;11.10;99.90;;;;;;5046698;28;20033;-76
2022/10/28 07:08:06;;;;;;;13.13;6.45;;;11.10;99.90;;;;;;5043336;28;20363;-77
2022/10/28 07:10:32;;;;;;;13.23;6.97;;;11.10;99.90;;;;;;5041410;28;20029;-83
2022/10/28 07:12:58;;;;;;;16.27;7.40;;;11.10;99.90;;;;;;5046604;28;20033;-80
2022/10/28 07:15:23;;;;;;;13.30;6.95;;;11.20;99.90;;;;;;5045530;28;20090;-74
2022/10/28 07:17:53;;;;;;;24.02;7.13;;;11.20;99.90;;;;;;5043238;28;20033;-78
2022/10/28 07:20:19;;;;;;;14.02;5.35;;;11.30;99.90;;;;;;5044989;28;20041;-80
2022/10/28 07:22:45;;;;;;;15.93;6.60;;;11.50;99.90;;;;;;5046379;28;20025;-76
2022/10/28 07:25:10;;;;;;;16.48;6.32;;;11.60;99.90;;;;;;5035994;28;20477;-74
2022/10/28 07:27:36;;;;;;;13.65;6.53;;;11.80;99.90;;;;;;5047750;28;20108;-74
2022/10/28 07:30:02;;;;;;;16.42;6.13;;;11.80;99.90;;;;;;5042529;28;20100;-76
2022/10/28 07:32:31;;;;;;;18.40;6.68;;;11.70;99.90;;;;;;5046557;28;20556;-76
2022/10/28 07:34:57;;;;;;;10.90;5.60;;;11.60;99.90;;;;;;5046057;28;20074;-76
2022/10/28 07:37:22;;;;;;;14.13;6.18;;;11.70;99.90;;;;;;5045466;28;20029;-75
2022/10/28 07:39:48;;;;;;;22.88;6.68;;;11.70;99.90;;;;;;5046040;28;20033;-76
2022/10/28 07:42:14;;;;;;;12.63;6.20;;;11.80;99.90;;;;;;5047638;28;20037;-79
2022/10/28 07:44:39;;;;;;;19.67;7.15;;;11.80;99.90;;;;;;5049717;28;20490;-81
2022/10/28 07:47:05;;;;;;;14.40;6.60;;;11.90;99.90;;;;;;5048732;28;20053;-82
2022/10/28 07:49:31;;;;;;;13.90;6.18;;;12.10;99.90;;;;;;5046387;28;20607;-78
2022/10/28 07:51:56;;;;;;;13.90;6.47;;;12.20;99.90;;;;;;5046720;28;20082;-78
2022/10/28 07:54:22;;;;;;;10.27;6.03;;;12.30;99.90;;;;;;5047365;28;20178;-77
2022/10/28 07:56:47;;;;;;;16.85;7.65;;;12.40;99.90;;;;;;5047892;28;20029;-76
2022/10/28 07:59:13;;;;;;;16.30;6.68;;;12.50;99.90;;;;;;5045784;28;20040;-77
2022/10/28 08:01:39;;;;;;;9.85;6.15;;;12.60;99.90;;;;;;5061403;28;20555;-77
2022/10/28 08:04:04;;;;;;;13.90;7.00;;;12.80;99.90;;;;;;5060528;28;20054;-75
2022/10/28 08:06:30;;;;;;;11.15;6.22;;;12.90;99.90;;;;;;5045492;28;20843;-76
2022/10/28 08:08:56;;;;;;;23.02;8.65;;;13.00;99.90;;;;;;5047481;28;20474;-76
2022/10/28 08:11:23;;;;;;;26.02;8.45;;;13.10;99.90;;;;;;5045568;28;20033;-76
2022/10/28 08:13:52;;;;;;;22.45;8.30;;;13.10;99.90;;;;;;5048087;28;20033;-77
2022/10/28 08:16:18;;;;;;;16.02;7.95;;;13.00;99.90;;;;;;5047673;28;20021;-80
2022/10/28 08:18:44;;;;;;;19.25;8.20;;;13.00;99.90;;;;;;5053820;28;20051;-79
2022/10/28 08:21:11;;;;;;;20.90;7.85;;;13.10;99.90;;;;;;5048710;28;20488;-79
2022/10/28 08:23:37;;;;;;;16.63;7.15;;;13.10;99.90;;;;;;5046449;28;20037;-78
2022/10/28 08:26:03;;;;;;;22.35;7.63;;;13.30;99.90;;;;;;5047344;28;20543;-79
2022/10/28 08:28:29;;;;;;;26.10;8.77;;;13.40;99.90;;;;;;5044010;28;20111;-77
2022/10/28 08:31:00;;;;;;;20.90;8.68;;;13.50;99.90;;;;;;5045729;28;20052;-76
2022/10/28 08:33:26;;;;;;;24.10;8.05;;;13.60;99.90;;;;;;5047663;28;20029;-78
2022/10/28 08:35:52;;;;;;;26.10;8.13;;;13.70;99.90;;;;;;5048633;28;20078;-80
2022/10/28 08:38:17;;;;;;;28.83;9.15;;;13.80;99.90;;;;;;5046417;28;20044;-77
2022/10/28 08:41:03;;;;;;;18.58;8.20;;;13.80;99.90;;;;;;5047669;28;20563;-77
2022/10/28 08:43:59;;;;;;;22.35;7.72;;;13.90;99.90;;;;;;5046873;28;20480;-79
2022/10/28 08:46:34;;;;;;;15.23;7.68;;;14.00;99.90;;;;;;5046130;28;20053;-79
2022/10/28 08:49:02;;;;;;;17.40;7.63;;;14.00;99.90;;;;;;5045663;28;20592;-76
2022/10/28 08:51:39;;;;;;;26.88;7.72;;;14.00;99.90;;;;;;5048637;28;20036;-76
2022/10/28 08:54:13;;;;;;;18.42;6.78;;;14.10;99.90;;;;;;5048982;28;20033;-78
2022/10/28 08:56:45;;;;;;;21.95;7.20;;;14.10;99.90;;;;;;5045245;28;20496;-72
2022/10/28 08:59:16;;;;;;;18.45;7.15;;;14.10;99.90;;;;;;5045367;28;20397;-75
2022/10/28 09:01:47;;;;;;;15.57;6.80;;;14.10;99.90;;;;;;5046981;28;20037;-75
2022/10/28 09:04:25;;;;;;;;;;;14.10;99.90;;;;;;5046367;28;20037;-75
2022/10/28 09:06:51;;;;;;;13.48;6.65;;;14.20;99.90;;;;;;5048160;28;19912;-75
2022/10/28 09:09:21;;;;;;;16.42;7.10;;;14.30;99.90;;;;;;5057329;28;20367;-75
2022/10/28 09:12:05;;;;;;;;;;;14.40;99.90;;;;;;5068437;28;20031;-78
2022/10/28 09:14:46;;;;;;;18.13;7.10;;;14.40;99.90;;;;;;5044541;28;20935;-74
2022/10/28 09:17:50;;;;;;;14.70;5.82;;;14.50;99.90;;;;;;5047339;28;20037;-75
2022/10/28 09:20:27;;;;;;;19.67;6.50;;;14.50;99.90;;;;;;5043269;28;20037;-77
2022/10/28 09:22:56;;;;;;;16.60;6.78;;;14.50;99.90;;;;;;5046474;28;20033;-79
2022/10/28 09:25:26;;;;;;;15.00;6.53;;;14.50;99.90;;;;;;5048651;28;20033;-78
2022/10/28 09:28:04;;;;;;;15.10;6.82;;;14.60;99.90;;;;;;5068031;28;20271;-76
2022/10/28 09:30:54;;;;;;;12.57;6.80;;;14.70;99.90;;;;;;5044839;28;20105;-77
2022/10/28 09:33:46;;;;;;;15.77;6.57;;;14.90;99.90;;;;;;5046308;28;20083;-75
2022/10/28 09:36:29;;;;;;;20.73;7.47;;;15.00;99.90;;;;;;5042921;28;20028;-81
2022/10/28 09:38:57;;;;;;;22.35;8.18;;;15.00;99.90;;;;;;5051078;28;20025;-74
2022/10/28 09:41:40;;;;;;;27.67;8.13;;;15.00;99.90;;;;;;5050176;28;20044;-77
2022/10/28 09:44:14;;;;;;;35.95;9.05;;;15.00;99.90;;;;;;5057455;28;22034;-77
2022/10/28 09:46:40;;;;;;;26.48;9.27;;;15.20;99.90;;;;;;5048537;28;20045;-73
2022/10/28 09:49:14;;;;;;;27.35;8.68;;;15.30;99.90;;;;;;5049110;28;20037;-76
2022/10/28 09:52:00;;;;;;;31.88;8.32;;;15.50;99.90;;;;;;5048512;28;20017;-73
2022/10/28 09:54:33;;;;;;;28.75;7.97;;;15.70;99.90;;;;;;5046547;28;20025;-75
2022/10/28 09:57:00;;;;;;;28.45;8.20;;;15.90;99.90;;;;;;5044628;28;20112;-77
2022/10/28 09:59:25;;;;;;;27.20;7.75;;;16.00;99.90;;;;;;5050830;28;20032;-76
2022/10/28 10:01:51;;;;;;;22.23;6.55;;;16.30;99.90;;;;;;5050896;28;20524;-76
2022/10/28 10:04:19;;;;;;;23.25;7.53;;;16.50;99.90;;;;;;5050289;28;20048;-77
2022/10/28 10:06:48;;;;;;;22.00;6.43;;;16.70;99.90;;;;;;5049119;28;20032;-81
2022/10/28 10:09:25;;;;;;;21.67;7.10;;;16.70;99.90;;;;;;5049236;28;20440;-78
2022/10/28 10:11:54;;;;;;;16.45;6.63;;;16.80;99.90;;;;;;5049716;28;20033;-76
2022/10/28 10:14:46;;;;;;;15.88;6.53;;;17.10;99.90;;;;;;5049553;28;20060;-73
2022/10/28 10:17:20;;;;;;;13.05;5.80;;;17.40;99.90;;;;;;5052163;28;20055;-78
2022/10/28 10:20:01;;;;;;;14.07;5.53;;;17.60;99.90;;;;;;5064458;28;20039;-75
2022/10/28 10:22:34;;;;;;;11.13;5.47;;;17.90;99.90;;;;;;5049048;28;20033;-75
2022/10/28 10:25:00;;;;;;;19.40;5.43;;;18.20;99.90;;;;;;5047718;28;20028;-76
2022/10/28 10:27:29;;;;;;;12.02;5.75;;;18.50;99.90;;;;;;5049144;28;20064;-76
2022/10/28 10:29:57;;;;;;;20.73;5.82;;;19.00;99.90;;;;;;5046403;28;20500;-75
2022/10/28 10:32:32;;;;;;;17.52;5.75;;;19.30;99.90;;;;;;5046442;28;20481;-75
2022/10/28 10:35:13;;;;;;;10.18;4.88;;;19.70;99.90;;;;;;5049056;28;20158;-75
2022/10/28 10:37:44;;;;;;;12.90;4.50;;;20.00;99.90;;;;;;5048964;28;20079;-76
2022/10/28 10:40:12;;;;;;;15.68;4.72;;;20.10;99.90;;;;;;5046794;28;20040;-77
2022/10/28 10:42:38;;;;;;;17.13;4.55;;;20.10;99.90;;;;;;5047733;28;20493;-75
2022/10/28 10:45:22;;;;;;;17.05;4.80;;;20.10;99.90;;;;;;5048067;28;20056;-76
2022/10/28 10:47:59;;;;;;;18.23;5.47;;;20.00;99.90;;;;;;5046407;28;20032;-77
2022/10/28 10:50:30;;;;;;;16.63;5.40;;;19.80;99.90;;;;;;5044963;28;20032;-76
2022/10/28 10:52:58;;;;;;;9.20;4.15;;;19.80;99.90;;;;;;5049634;28;20037;-75
2022/10/28 10:55:38;;;;;;;12.07;4.20;;;19.80;99.90;;;;;;5047568;28;20110;-74
2022/10/28 10:58:13;;;;;;;12.60;2.72;;;19.90;99.90;;;;;;5044188;28;20460;-76
2022/10/28 11:00:46;;;;;;;13.85;2.80;;;20.00;99.90;;;;;;5045840;28;20072;-76
2022/10/28 11:03:41;;;;;;;7.55;2.40;;;20.40;99.90;;;;;;5049089;28;20036;-75
2022/10/28 11:06:17;;;;;;;17.05;2.85;;;20.40;99.90;;;;;;5042609;28;20047;-75
2022/10/28 11:08:43;;;;;;;9.60;3.15;;;20.60;99.90;;;;;;5046711;28;20028;-80
2022/10/28 11:11:18;;;;;;;12.50;2.63;;;20.80;99.90;;;;;;5048111;28;20442;-77
2022/10/28 11:13:45;;;;;;;12.55;2.72;;;21.30;99.90;;;;;;5044618;28;20499;-74
2022/10/28 11:16:22;;;;;;;9.32;2.47;;;21.70;99.90;;;;;;5047801;28;20135;-75
2022/10/28 11:18:52;;;;;;;10.52;2.80;;;21.90;99.90;;;;;;5042654;28;20044;-75
2022/10/28 11:21:34;;;;;;;10.38;2.92;;;22.00;99.90;;;;;;5046959;28;20394;-78
2022/10/28 11:23:59;;;;;;;8.57;3.53;;;22.10;99.90;;;;;;5041462;28;20040;-78
2022/10/28 11:26:25;;;;;;;14.50;3.88;;;22.30;99.90;;;;;;5047209;28;20032;-72
2022/10/28 11:29:12;;;;;;;13.82;3.72;;;22.70;99.90;;;;;;5047937;28;20112;-75
2022/10/28 11:32:27;;;;;;;17.10;3.40;;;22.90;99.90;;;;;;5038678;28;20013;-75
2022/10/28 11:34:59;;;;;;;11.57;3.47;;;23.10;99.90;;;;;;5039355;28;20029;-74
2022/10/28 11:37:43;;;;;;;10.73;3.45;;;23.50;99.90;;;;;;5040857;28;21612;-74
2022/10/28 11:40:59;;;;;;;15.02;2.78;;;23.60;99.90;;;;;;5040074;28;20171;-75
2022/10/28 11:43:52;;;;;;;13.07;2.83;;;23.60;99.90;;;;;;5023878;28;20041;-73
2022/10/28 11:46:52;;;;;;;9.50;2.72;;;23.70;99.90;;;;;;5041545;28;20084;-75
2022/10/28 11:49:32;;;;;;;15.45;2.78;;;23.80;99.90;;;;;;5045012;28;20033;-76
2022/10/28 11:52:04;;;;;;;12.68;2.40;;;23.80;99.90;;;;;;5043659;28;20037;-74
2022/10/28 11:54:48;;;;;;;11.60;2.75;;;23.90;99.90;;;;;;5038558;28;20489;-75
2022/10/28 11:57:25;;;;;;;10.27;2.35;;;24.10;99.90;;;;;;5042140;28;20032;-72
2022/10/28 12:00:09;;;;;;;7.50;2.33;;;24.00;99.90;;;;;;5039257;28;20033;-76
2022/10/28 12:03:03;;;;;;;11.52;2.90;;;23.80;99.90;;;;;;5047739;28;20032;-77
2022/10/28 12:05:43;;;;;;;8.35;2.67;;;23.60;99.90;;;;;;5047740;28;20044;-73
2022/10/28 12:08:09;;;;;;;7.90;2.50;;;23.40;99.90;;;;;;5064742;28;20499;-76
2022/10/28 12:11:02;;;;;;;9.07;2.80;;;23.60;99.90;;;;;;5047977;28;20024;-78
2022/10/28 12:13:48;;;;;;;10.13;2.67;;;23.80;99.90;;;;;;5028507;28;20034;-73
2022/10/28 12:16:24;;;;;;;9.68;2.42;;;23.80;99.90;;;;;;5041914;28;20040;-76
2022/10/28 12:18:59;;;;;;;10.77;2.55;;;23.70;99.90;;;;;;5046332;28;20059;-77
2022/10/28 12:21:34;;;;;;;9.48;2.65;;;23.60;99.90;;;;;;5048710;28;20044;-77
2022/10/28 12:24:02;;;;;;;7.82;2.75;;;23.50;99.90;;;;;;5048498;28;20092;-79
2022/10/28 12:26:50;;;;;;;10.43;2.42;;;23.30;99.90;;;;;;5046755;28;20672;-72
2022/10/28 12:29:20;;;;;;;11.73;2.70;;;23.10;99.90;;;;;;5048298;28;20025;-76
2022/10/28 12:32:12;;;;;;;10.13;2.80;;;23.00;99.90;;;;;;5045866;28;20025;-78
2022/10/28 12:34:45;;;;;;;10.85;3.00;;;22.90;99.90;;;;;;5027954;28;20037;-77
2022/10/28 12:37:24;;;;;;;13.43;3.05;;;22.90;99.90;;;;;;5042113;28;20123;-75
2022/10/28 12:39:54;;;;;;;7.45;2.55;;;22.80;99.90;;;;;;5047498;28;20095;-77
2022/10/28 12:42:30;;;;;;;22.15;2.78;;;22.80;99.90;;;;;;5046823;28;20033;-74
2022/10/28 12:44:59;;;;;;;9.68;2.35;;;22.80;99.90;;;;;;5028243;28;20664;-74
2022/10/28 12:47:39;;;;;;;8.75;2.88;;;22.70;99.90;;;;;;5041201;28;20022;-77
2022/10/28 12:50:48;;;;;;;10.40;2.58;;;22.70;99.90;;;;;;5057360;28;20033;-75
2022/10/28 12:53:19;;;;;;;7.97;2.47;;;22.80;99.90;;;;;;5068286;28;20405;-76
2022/10/28 12:55:50;;;;;;;11.15;2.42;;;23.20;99.90;;;;;;5067726;28;20024;-76
2022/10/28 12:58:34;;;;;;;11.80;2.47;;;23.60;99.90;;;;;;5068491;28;20070;-76
2022/10/28 13:01:09;;;;;;;10.07;2.45;;;24.00;99.90;;;;;;5048887;28;20485;-76